sensor_id;sensor_type;location;lat;lon;timestamp;temperature;humidity
22235;DHT22;11286;45.596;5.284;2023-04-24T00:01:42;13.20;99.90
22235;DHT22;11286;45.596;5.284;2023-04-24T00:04:08;13.30;99.90
22235;DHT22;11286;45.596;5.284;2023-04-24T00:06:36;13.20;99.90
22235;DHT22;11286;45.596;5.284;2023-04-24T00:09:03;13.20;99.90
22235;DHT22;11286;45.596;5.284;2023-04-24T00:11:29;13.20;99.90
22235;DHT22;11286;45.596;5.284;2023-04-24T00:13:56;13.10;99.90
22235;DHT22;11286;45.596;5.284;2023-04-24T00:16:22;13.10;99.90
22235;DHT22;11286;45.596;5.284;2023-04-24T00:18:48;13.10;99.90
22235;DHT22;11286;45.596;5.284;2023-04-24T00:21:14;13.10;99.90
22235;DHT22;11286;45.596;5.284;2023-04-24T00:23:41;13.10;99.90
22235;DHT22;11286;45.596;5.284;2023-04-24T00:26:07;13.10;99.90
22235;DHT22;11286;45.596;5.284;2023-04-24T00:28:32;13.20;99.90
22235;DHT22;11286;45.596;5.284;2023-04-24T00:30:58;13.10;99.90
22235;DHT22;11286;45.596;5.284;2023-04-24T00:33:23;13.10;99.90
22235;DHT22;11286;45.596;5.284;2023-04-24T00:35:49;13.10;99.90
22235;DHT22;11286;45.596;5.284;2023-04-24T00:38:15;13.00;99.90
22235;DHT22;11286;45.596;5.284;2023-04-24T00:40:40;13.10;99.90
22235;DHT22;11286;45.596;5.284;2023-04-24T00:43:06;13.10;99.90
22235;DHT22;11286;45.596;5.284;2023-04-24T00:45:32;13.10;99.90
22235;DHT22;11286;45.596;5.284;2023-04-24T00:47:57;13.10;99.90
22235;DHT22;11286;45.596;5.284;2023-04-24T00:50:24;13.10;99.90
22235;DHT22;11286;45.596;5.284;2023-04-24T00:52:50;13.20;99.90
22235;DHT22;11286;45.596;5.284;2023-04-24T00:55:16;13.10;99.90
22235;DHT22;11286;45.596;5.284;2023-04-24T00:57:43;13.20;99.90
22235;DHT22;11286;45.596;5.284;2023-04-24T01:00:09;13.20;99.90
22235;DHT22;11286;45.596;5.284;2023-04-24T01:02:39;13.20;99.90
22235;DHT22;11286;45.596;5.284;2023-04-24T01:05:09;13.20;99.90
22235;DHT22;11286;45.596;5.284;2023-04-24T01:07:35;13.20;99.90
22235;DHT22;11286;45.596;5.284;2023-04-24T01:10:02;13.10;99.90
22235;DHT22;11286;45.596;5.284;2023-04-24T01:12:27;13.10;99.90
22235;DHT22;11286;45.596;5.284;2023-04-24T01:14:54;13.00;99.90
22235;DHT22;11286;45.596;5.284;2023-04-24T01:17:20;13.00;99.90
22235;DHT22;11286;45.596;5.284;2023-04-24T01:19:46;12.90;99.90
22235;DHT22;11286;45.596;5.284;2023-04-24T01:22:15;13.00;99.90
22235;DHT22;11286;45.596;5.284;2023-04-24T01:24:42;13.00;99.90
22235;DHT22;11286;45.596;5.284;2023-04-24T01:27:09;13.00;99.90
22235;DHT22;11286;45.596;5.284;2023-04-24T01:29:35;12.90;99.90
22235;DHT22;11286;45.596;5.284;2023-04-24T01:32:02;13.00;99.90
22235;DHT22;11286;45.596;5.284;2023-04-24T01:34:28;13.00;99.90
22235;DHT22;11286;45.596;5.284;2023-04-24T01:36:54;13.00;99.90
22235;DHT22;11286;45.596;5.284;2023-04-24T01:39:21;13.00;99.90
22235;DHT22;11286;45.596;5.284;2023-04-24T01:41:48;13.00;99.90
22235;DHT22;11286;45.596;5.284;2023-04-24T01:44:15;13.10;99.90
22235;DHT22;11286;45.596;5.284;2023-04-24T01:46:41;13.10;99.90
22235;DHT22;11286;45.596;5.284;2023-04-24T01:49:07;13.10;99.90
22235;DHT22;11286;45.596;5.284;2023-04-24T01:51:33;13.10;99.90
22235;DHT22;11286;45.596;5.284;2023-04-24T01:53:58;13.10;99.90
22235;DHT22;11286;45.596;5.284;2023-04-24T01:56:25;13.10;99.90
22235;DHT22;11286;45.596;5.284;2023-04-24T01:58:52;13.10;99.90
22235;DHT22;11286;45.596;5.284;2023-04-24T02:01:24;13.00;99.90
22235;DHT22;11286;45.596;5.284;2023-04-24T02:03:50;13.10;99.90
22235;DHT22;11286;45.596;5.284;2023-04-24T02:06:15;13.10;99.90
22235;DHT22;11286;45.596;5.284;2023-04-24T02:08:41;13.20;99.90
22235;DHT22;11286;45.596;5.284;2023-04-24T02:11:09;13.20;99.90
22235;DHT22;11286;45.596;5.284;2023-04-24T02:13:35;13.20;99.90
22235;DHT22;11286;45.596;5.284;2023-04-24T02:16:01;13.20;99.90
22235;DHT22;11286;45.596;5.284;2023-04-24T02:18:26;13.20;99.90
22235;DHT22;11286;45.596;5.284;2023-04-24T02:20:52;13.10;99.90
22235;DHT22;11286;45.596;5.284;2023-04-24T02:23:18;13.20;99.90
22235;DHT22;11286;45.596;5.284;2023-04-24T02:25:43;13.20;99.90
22235;DHT22;11286;45.596;5.284;2023-04-24T02:28:09;13.10;99.90
22235;DHT22;11286;45.596;5.284;2023-04-24T02:30:35;13.10;99.90
22235;DHT22;11286;45.596;5.284;2023-04-24T02:33:00;13.00;99.90
22235;DHT22;11286;45.596;5.284;2023-04-24T02:35:26;13.00;99.90
22235;DHT22;11286;45.596;5.284;2023-04-24T02:37:52;13.00;99.90
22235;DHT22;11286;45.596;5.284;2023-04-24T02:40:17;13.00;99.90
22235;DHT22;11286;45.596;5.284;2023-04-24T02:42:43;12.90;99.90
22235;DHT22;11286;45.596;5.284;2023-04-24T02:45:09;12.90;99.90
22235;DHT22;11286;45.596;5.284;2023-04-24T02:47:35;12.90;99.90
22235;DHT22;11286;45.596;5.284;2023-04-24T02:50:01;12.80;99.90
22235;DHT22;11286;45.596;5.284;2023-04-24T02:52:27;12.90;99.90
22235;DHT22;11286;45.596;5.284;2023-04-24T02:54:52;13.00;99.90
22235;DHT22;11286;45.596;5.284;2023-04-24T02:57:19;13.00;99.90
22235;DHT22;11286;45.596;5.284;2023-04-24T02:59:44;12.90;99.90
22235;DHT22;11286;45.596;5.284;2023-04-24T03:02:11;13.00;99.90
22235;DHT22;11286;45.596;5.284;2023-04-24T03:04:37;13.00;99.90
22235;DHT22;11286;45.596;5.284;2023-04-24T03:07:03;12.90;99.90
22235;DHT22;11286;45.596;5.284;2023-04-24T03:09:29;13.00;99.90
22235;DHT22;11286;45.596;5.284;2023-04-24T03:11:55;13.00;99.90
22235;DHT22;11286;45.596;5.284;2023-04-24T03:14:21;12.80;99.90
22235;DHT22;11286;45.596;5.284;2023-04-24T03:16:47;12.80;99.90
22235;DHT22;11286;45.596;5.284;2023-04-24T03:19:13;12.60;99.90
22235;DHT22;11286;45.596;5.284;2023-04-24T03:21:39;12.70;99.90
22235;DHT22;11286;45.596;5.284;2023-04-24T03:24:07;12.80;99.90
22235;DHT22;11286;45.596;5.284;2023-04-24T03:26:33;12.80;99.90
22235;DHT22;11286;45.596;5.284;2023-04-24T03:28:59;12.80;99.90
22235;DHT22;11286;45.596;5.284;2023-04-24T03:31:24;12.80;99.90
22235;DHT22;11286;45.596;5.284;2023-04-24T03:33:50;12.90;99.90
22235;DHT22;11286;45.596;5.284;2023-04-24T03:36:16;12.90;99.90
22235;DHT22;11286;45.596;5.284;2023-04-24T03:38:43;12.90;99.90
22235;DHT22;11286;45.596;5.284;2023-04-24T03:41:08;12.80;99.90
22235;DHT22;11286;45.596;5.284;2023-04-24T03:43:34;12.80;99.90
22235;DHT22;11286;45.596;5.284;2023-04-24T03:46:00;12.80;99.90
22235;DHT22;11286;45.596;5.284;2023-04-24T03:48:26;12.70;99.90
22235;DHT22;11286;45.596;5.284;2023-04-24T03:50:51;12.70;99.90
22235;DHT22;11286;45.596;5.284;2023-04-24T03:53:17;12.60;99.90
22235;DHT22;11286;45.596;5.284;2023-04-24T03:55:43;12.60;99.90
22235;DHT22;11286;45.596;5.284;2023-04-24T03:58:08;12.60;99.90
22235;DHT22;11286;45.596;5.284;2023-04-24T04:00:34;12.60;99.90
22235;DHT22;11286;45.596;5.284;2023-04-24T04:03:00;12.60;99.90
22235;DHT22;11286;45.596;5.284;2023-04-24T04:05:25;12.60;99.90
22235;DHT22;11286;45.596;5.284;2023-04-24T04:07:51;12.60;99.90
22235;DHT22;11286;45.596;5.284;2023-04-24T04:10:17;12.60;99.90
22235;DHT22;11286;45.596;5.284;2023-04-24T04:12:42;12.60;99.90
22235;DHT22;11286;45.596;5.284;2023-04-24T04:15:08;12.50;99.90
22235;DHT22;11286;45.596;5.284;2023-04-24T04:17:34;12.40;99.90
22235;DHT22;11286;45.596;5.284;2023-04-24T04:20:00;12.40;99.90
22235;DHT22;11286;45.596;5.284;2023-04-24T04:22:26;12.50;99.90
22235;DHT22;11286;45.596;5.284;2023-04-24T04:24:52;12.50;99.90
22235;DHT22;11286;45.596;5.284;2023-04-24T04:27:17;12.50;99.90
22235;DHT22;11286;45.596;5.284;2023-04-24T04:29:44;12.50;99.90
22235;DHT22;11286;45.596;5.284;2023-04-24T04:32:10;12.50;99.90
22235;DHT22;11286;45.596;5.284;2023-04-24T04:34:35;12.40;99.90
22235;DHT22;11286;45.596;5.284;2023-04-24T04:37:03;12.40;99.90
22235;DHT22;11286;45.596;5.284;2023-04-24T04:39:29;12.50;99.90
22235;DHT22;11286;45.596;5.284;2023-04-24T04:41:55;12.40;99.90
22235;DHT22;11286;45.596;5.284;2023-04-24T04:44:21;12.30;99.90
22235;DHT22;11286;45.596;5.284;2023-04-24T04:46:47;12.20;99.90
22235;DHT22;11286;45.596;5.284;2023-04-24T04:49:12;12.20;99.90
22235;DHT22;11286;45.596;5.284;2023-04-24T04:51:42;12.20;99.90
22235;DHT22;11286;45.596;5.284;2023-04-24T04:54:07;12.20;99.90
22235;DHT22;11286;45.596;5.284;2023-04-24T04:56:33;12.20;99.90
22235;DHT22;11286;45.596;5.284;2023-04-24T04:58:59;12.10;99.90
22235;DHT22;11286;45.596;5.284;2023-04-24T05:01:25;12.20;99.90
22235;DHT22;11286;45.596;5.284;2023-04-24T05:03:52;12.30;99.90
22235;DHT22;11286;45.596;5.284;2023-04-24T05:06:18;12.30;99.90
22235;DHT22;11286;45.596;5.284;2023-04-24T05:08:44;12.40;99.90
22235;DHT22;11286;45.596;5.284;2023-04-24T05:11:10;12.20;99.90
22235;DHT22;11286;45.596;5.284;2023-04-24T05:13:35;12.40;99.90
22235;DHT22;11286;45.596;5.284;2023-04-24T05:16:01;12.40;99.90
22235;DHT22;11286;45.596;5.284;2023-04-24T05:18:26;12.40;99.90
22235;DHT22;11286;45.596;5.284;2023-04-24T05:20:52;12.20;99.90
22235;DHT22;11286;45.596;5.284;2023-04-24T05:23:18;12.30;99.90
22235;DHT22;11286;45.596;5.284;2023-04-24T05:25:43;12.20;99.90
22235;DHT22;11286;45.596;5.284;2023-04-24T05:28:09;12.30;99.90
22235;DHT22;11286;45.596;5.284;2023-04-24T05:30:35;12.50;99.90
22235;DHT22;11286;45.596;5.284;2023-04-24T05:33:00;12.50;99.90
22235;DHT22;11286;45.596;5.284;2023-04-24T05:35:26;12.50;99.90
22235;DHT22;11286;45.596;5.284;2023-04-24T05:37:52;12.60;99.90
22235;DHT22;11286;45.596;5.284;2023-04-24T05:40:17;12.60;99.90
22235;DHT22;11286;45.596;5.284;2023-04-24T05:42:43;12.50;99.90
22235;DHT22;11286;45.596;5.284;2023-04-24T05:45:09;12.40;99.90
22235;DHT22;11286;45.596;5.284;2023-04-24T05:47:39;12.40;99.90
22235;DHT22;11286;45.596;5.284;2023-04-24T05:50:05;12.40;99.90
22235;DHT22;11286;45.596;5.284;2023-04-24T05:52:31;12.40;99.90
22235;DHT22;11286;45.596;5.284;2023-04-24T05:54:57;12.50;99.90
22235;DHT22;11286;45.596;5.284;2023-04-24T05:57:22;12.40;99.90
22235;DHT22;11286;45.596;5.284;2023-04-24T05:59:48;12.50;99.90
22235;DHT22;11286;45.596;5.284;2023-04-24T06:02:14;12.60;99.90
22235;DHT22;11286;45.596;5.284;2023-04-24T06:04:39;12.70;99.90
22235;DHT22;11286;45.596;5.284;2023-04-24T06:07:05;12.60;99.90
22235;DHT22;11286;45.596;5.284;2023-04-24T06:09:31;12.60;99.90
22235;DHT22;11286;45.596;5.284;2023-04-24T06:11:57;12.60;99.90
22235;DHT22;11286;45.596;5.284;2023-04-24T06:14:23;12.60;99.90
22235;DHT22;11286;45.596;5.284;2023-04-24T06:16:49;12.90;99.90
22235;DHT22;11286;45.596;5.284;2023-04-24T06:19:15;13.00;99.90
22235;DHT22;11286;45.596;5.284;2023-04-24T06:21:40;13.00;99.90
22235;DHT22;11286;45.596;5.284;2023-04-24T06:24:06;13.10;99.90
22235;DHT22;11286;45.596;5.284;2023-04-24T06:26:31;12.90;99.90
22235;DHT22;11286;45.596;5.284;2023-04-24T06:28:57;13.10;99.90
22235;DHT22;11286;45.596;5.284;2023-04-24T06:31:24;13.10;99.90
22235;DHT22;11286;45.596;5.284;2023-04-24T06:33:50;13.00;99.90
22235;DHT22;11286;45.596;5.284;2023-04-24T06:36:16;13.20;99.90
22235;DHT22;11286;45.596;5.284;2023-04-24T06:38:41;13.20;99.90
22235;DHT22;11286;45.596;5.284;2023-04-24T06:41:07;13.20;99.90
22235;DHT22;11286;45.596;5.284;2023-04-24T06:43:33;13.20;99.90
22235;DHT22;11286;45.596;5.284;2023-04-24T06:45:59;13.20;99.90
22235;DHT22;11286;45.596;5.284;2023-04-24T06:48:29;13.30;99.90
22235;DHT22;11286;45.596;5.284;2023-04-24T06:50:54;13.20;99.90
22235;DHT22;11286;45.596;5.284;2023-04-24T06:53:20;13.50;99.90
22235;DHT22;11286;45.596;5.284;2023-04-24T06:55:46;13.40;99.90
22235;DHT22;11286;45.596;5.284;2023-04-24T06:58:12;13.40;99.90
22235;DHT22;11286;45.596;5.284;2023-04-24T07:00:38;13.20;99.90
22235;DHT22;11286;45.596;5.284;2023-04-24T07:03:04;13.10;99.90
22235;DHT22;11286;45.596;5.284;2023-04-24T07:05:33;13.30;99.90
22235;DHT22;11286;45.596;5.284;2023-04-24T07:08:03;13.30;99.90
22235;DHT22;11286;45.596;5.284;2023-04-24T07:10:28;13.30;99.90
22235;DHT22;11286;45.596;5.284;2023-04-24T07:12:55;13.20;99.90
22235;DHT22;11286;45.596;5.284;2023-04-24T07:15:22;13.30;99.90
22235;DHT22;11286;45.596;5.284;2023-04-24T07:17:48;13.20;99.90
22235;DHT22;11286;45.596;5.284;2023-04-24T07:20:14;13.30;99.90
22235;DHT22;11286;45.596;5.284;2023-04-24T07:22:40;13.30;99.90
22235;DHT22;11286;45.596;5.284;2023-04-24T07:25:06;13.40;99.90
22235;DHT22;11286;45.596;5.284;2023-04-24T07:27:32;13.50;99.90
22235;DHT22;11286;45.596;5.284;2023-04-24T07:29:58;13.70;99.90
22235;DHT22;11286;45.596;5.284;2023-04-24T07:32:23;13.60;99.90
22235;DHT22;11286;45.596;5.284;2023-04-24T07:34:49;13.60;99.90
22235;DHT22;11286;45.596;5.284;2023-04-24T07:37:15;13.90;99.90
22235;DHT22;11286;45.596;5.284;2023-04-24T07:39:40;13.90;99.90
22235;DHT22;11286;45.596;5.284;2023-04-24T07:42:06;13.80;99.90
22235;DHT22;11286;45.596;5.284;2023-04-24T07:44:32;13.80;99.90
22235;DHT22;11286;45.596;5.284;2023-04-24T07:46:57;14.00;99.90
22235;DHT22;11286;45.596;5.284;2023-04-24T07:49:23;14.20;99.90
22235;DHT22;11286;45.596;5.284;2023-04-24T07:51:49;14.30;99.90
22235;DHT22;11286;45.596;5.284;2023-04-24T07:54:15;14.30;99.90
22235;DHT22;11286;45.596;5.284;2023-04-24T07:56:41;14.50;99.90
22235;DHT22;11286;45.596;5.284;2023-04-24T07:59:08;14.40;99.90
22235;DHT22;11286;45.596;5.284;2023-04-24T08:01:35;14.40;99.90
22235;DHT22;11286;45.596;5.284;2023-04-24T08:04:01;14.60;99.90
22235;DHT22;11286;45.596;5.284;2023-04-24T08:06:27;14.90;99.90
22235;DHT22;11286;45.596;5.284;2023-04-24T08:08:57;15.00;99.90
22235;DHT22;11286;45.596;5.284;2023-04-24T08:11:23;15.00;99.90
22235;DHT22;11286;45.596;5.284;2023-04-24T08:13:49;14.80;99.90
22235;DHT22;11286;45.596;5.284;2023-04-24T08:16:14;14.50;99.90
22235;DHT22;11286;45.596;5.284;2023-04-24T08:18:40;14.40;99.90
22235;DHT22;11286;45.596;5.284;2023-04-24T08:21:06;14.50;99.90
22235;DHT22;11286;45.596;5.284;2023-04-24T08:23:32;14.50;99.90
22235;DHT22;11286;45.596;5.284;2023-04-24T08:25:57;14.80;99.90
22235;DHT22;11286;45.596;5.284;2023-04-24T08:28:23;15.00;99.90
22235;DHT22;11286;45.596;5.284;2023-04-24T08:30:49;15.00;99.90
22235;DHT22;11286;45.596;5.284;2023-04-24T08:33:23;15.10;99.90
22235;DHT22;11286;45.596;5.284;2023-04-24T08:35:48;15.50;99.90
22235;DHT22;11286;45.596;5.284;2023-04-24T08:38:15;15.60;99.90
22235;DHT22;11286;45.596;5.284;2023-04-24T08:40:41;15.40;99.90
22235;DHT22;11286;45.596;5.284;2023-04-24T08:43:07;15.30;99.90
22235;DHT22;11286;45.596;5.284;2023-04-24T08:45:33;15.30;99.90
22235;DHT22;11286;45.596;5.284;2023-04-24T08:47:58;15.40;99.90
22235;DHT22;11286;45.596;5.284;2023-04-24T08:50:26;15.40;99.90
22235;DHT22;11286;45.596;5.284;2023-04-24T08:52:52;15.30;99.90
22235;DHT22;11286;45.596;5.284;2023-04-24T08:55:20;15.60;99.90
22235;DHT22;11286;45.596;5.284;2023-04-24T08:57:50;15.60;99.90
22235;DHT22;11286;45.596;5.284;2023-04-24T09:00:17;15.80;99.90
22235;DHT22;11286;45.596;5.284;2023-04-24T09:02:43;15.90;99.90
22235;DHT22;11286;45.596;5.284;2023-04-24T09:05:10;15.90;99.90
22235;DHT22;11286;45.596;5.284;2023-04-24T09:07:37;15.90;99.90
22235;DHT22;11286;45.596;5.284;2023-04-24T09:10:05;15.90;99.90
22235;DHT22;11286;45.596;5.284;2023-04-24T09:12:33;16.00;99.90
22235;DHT22;11286;45.596;5.284;2023-04-24T09:15:00;16.20;99.90
22235;DHT22;11286;45.596;5.284;2023-04-24T09:17:30;16.10;99.90
22235;DHT22;11286;45.596;5.284;2023-04-24T09:19:55;16.40;99.90
22235;DHT22;11286;45.596;5.284;2023-04-24T09:22:21;16.30;99.90
22235;DHT22;11286;45.596;5.284;2023-04-24T09:24:47;16.30;99.90
22235;DHT22;11286;45.596;5.284;2023-04-24T09:27:13;16.50;99.90
22235;DHT22;11286;45.596;5.284;2023-04-24T09:30:02;16.40;99.90
22235;DHT22;11286;45.596;5.284;2023-04-24T09:32:28;16.40;99.90
22235;DHT22;11286;45.596;5.284;2023-04-24T09:35:09;16.60;99.90
22235;DHT22;11286;45.596;5.284;2023-04-24T09:37:37;16.50;99.90
22235;DHT22;11286;45.596;5.284;2023-04-24T09:40:14;16.50;99.90
22235;DHT22;11286;45.596;5.284;2023-04-24T09:42:44;16.70;99.90
22235;DHT22;11286;45.596;5.284;2023-04-24T09:45:10;16.60;99.90
22235;DHT22;11286;45.596;5.284;2023-04-24T09:47:40;17.20;99.90
22235;DHT22;11286;45.596;5.284;2023-04-24T09:50:14;17.40;99.90
22235;DHT22;11286;45.596;5.284;2023-04-24T09:52:44;17.40;99.90
22235;DHT22;11286;45.596;5.284;2023-04-24T09:55:19;17.30;99.90
22235;DHT22;11286;45.596;5.284;2023-04-24T09:57:56;17.20;99.90
22235;DHT22;11286;45.596;5.284;2023-04-24T10:00:27;17.10;99.90
22235;DHT22;11286;45.596;5.284;2023-04-24T10:02:58;17.10;99.90
22235;DHT22;11286;45.596;5.284;2023-04-24T10:05:34;17.40;99.90
22235;DHT22;11286;45.596;5.284;2023-04-24T10:08:08;17.40;99.90
22235;DHT22;11286;45.596;5.284;2023-04-24T10:10:38;17.70;99.90
22235;DHT22;11286;45.596;5.284;2023-04-24T10:13:04;17.70;99.90
22235;DHT22;11286;45.596;5.284;2023-04-24T10:15:32;17.70;99.90
22235;DHT22;11286;45.596;5.284;2023-04-24T10:18:00;17.90;99.90
22235;DHT22;11286;45.596;5.284;2023-04-24T10:20:28;17.40;99.90
22235;DHT22;11286;45.596;5.284;2023-04-24T10:22:56;17.90;99.90
22235;DHT22;11286;45.596;5.284;2023-04-24T10:25:24;17.70;99.90
22235;DHT22;11286;45.596;5.284;2023-04-24T10:27:51;17.90;99.90
22235;DHT22;11286;45.596;5.284;2023-04-24T10:30:19;18.00;99.90
22235;DHT22;11286;45.596;5.284;2023-04-24T10:32:45;18.30;99.90
22235;DHT22;11286;45.596;5.284;2023-04-24T10:35:13;18.10;99.90
22235;DHT22;11286;45.596;5.284;2023-04-24T10:40:31;18.40;99.90
22235;DHT22;11286;45.596;5.284;2023-04-24T10:42:59;18.90;99.90
22235;DHT22;11286;45.596;5.284;2023-04-24T10:45:27;19.10;99.90
22235;DHT22;11286;45.596;5.284;2023-04-24T10:47:59;18.80;99.90
22235;DHT22;11286;45.596;5.284;2023-04-24T10:50:28;18.60;99.90
22235;DHT22;11286;45.596;5.284;2023-04-24T10:53:05;18.80;99.90
22235;DHT22;11286;45.596;5.284;2023-04-24T10:55:51;19.00;99.90
22235;DHT22;11286;45.596;5.284;2023-04-24T10:58:42;18.90;99.90
22235;DHT22;11286;45.596;5.284;2023-04-24T11:01:43;18.60;99.90
22235;DHT22;11286;45.596;5.284;2023-04-24T11:04:29;19.20;99.90
22235;DHT22;11286;45.596;5.284;2023-04-24T11:06:56;22.70;99.90
22235;DHT22;11286;45.596;5.284;2023-04-24T11:09:22;24.00;99.90
22235;DHT22;11286;45.596;5.284;2023-04-24T11:11:49;24.60;99.90
22235;DHT22;11286;45.596;5.284;2023-04-24T11:14:15;24.90;99.90
22235;DHT22;11286;45.596;5.284;2023-04-24T11:16:42;25.00;99.90
22235;DHT22;11286;45.596;5.284;2023-04-24T11:21:46;25.50;99.90
22235;DHT22;11286;45.596;5.284;2023-04-24T11:24:31;25.70;99.90
22235;DHT22;11286;45.596;5.284;2023-04-24T11:27:15;27.50;99.90
22235;DHT22;11286;45.596;5.284;2023-04-24T11:34:46;26.40;99.90
22235;DHT22;11286;45.596;5.284;2023-04-24T11:37:13;25.70;99.90
22235;DHT22;11286;45.596;5.284;2023-04-24T11:39:39;25.70;99.90
22235;DHT22;11286;45.596;5.284;2023-04-24T11:42:05;27.30;99.90
22235;DHT22;11286;45.596;5.284;2023-04-24T11:44:34;28.40;99.90
22235;DHT22;11286;45.596;5.284;2023-04-24T11:47:00;27.20;99.90
22235;DHT22;11286;45.596;5.284;2023-04-24T11:49:25;27.90;99.90
22235;DHT22;11286;45.596;5.284;2023-04-24T11:51:55;26.00;99.90
22235;DHT22;11286;45.596;5.284;2023-04-24T11:54:21;26.70;99.90
22235;DHT22;11286;45.596;5.284;2023-04-24T11:56:47;28.40;99.90
22235;DHT22;11286;45.596;5.284;2023-04-24T11:59:13;28.90;99.90
22235;DHT22;11286;45.596;5.284;2023-04-24T12:01:45;27.50;99.90
22235;DHT22;11286;45.596;5.284;2023-04-24T12:04:12;26.40;99.90
22235;DHT22;11286;45.596;5.284;2023-04-24T12:06:38;27.10;99.90
22235;DHT22;11286;45.596;5.284;2023-04-24T12:09:03;26.30;99.90
22235;DHT22;11286;45.596;5.284;2023-04-24T12:11:29;25.30;99.90
22235;DHT22;11286;45.596;5.284;2023-04-24T12:13:55;24.50;99.90
22235;DHT22;11286;45.596;5.284;2023-04-24T12:16:21;24.10;99.90
22235;DHT22;11286;45.596;5.284;2023-04-24T12:18:46;24.50;99.90
22235;DHT22;11286;45.596;5.284;2023-04-24T12:21:20;25.30;99.90
22235;DHT22;11286;45.596;5.284;2023-04-24T12:23:47;25.90;99.90
22235;DHT22;11286;45.596;5.284;2023-04-24T12:26:17;25.60;99.90
22235;DHT22;11286;45.596;5.284;2023-04-24T12:28:45;25.40;99.90
22235;DHT22;11286;45.596;5.284;2023-04-24T12:31:11;26.60;99.90
22235;DHT22;11286;45.596;5.284;2023-04-24T12:33:36;27.70;99.90
22235;DHT22;11286;45.596;5.284;2023-04-24T12:36:04;27.60;99.90
22235;DHT22;11286;45.596;5.284;2023-04-24T12:38:31;27.40;99.90
22235;DHT22;11286;45.596;5.284;2023-04-24T12:41:05;28.00;99.90
22235;DHT22;11286;45.596;5.284;2023-04-24T12:43:31;27.90;99.90
22235;DHT22;11286;45.596;5.284;2023-04-24T12:45:57;27.40;99.90
22235;DHT22;11286;45.596;5.284;2023-04-24T12:48:27;27.60;99.90
22235;DHT22;11286;45.596;5.284;2023-04-24T12:50:53;28.30;99.90
22235;DHT22;11286;45.596;5.284;2023-04-24T12:53:19;28.00;99.90
22235;DHT22;11286;45.596;5.284;2023-04-24T12:55:45;26.90;99.90
22235;DHT22;11286;45.596;5.284;2023-04-24T12:58:12;26.60;99.90
22235;DHT22;11286;45.596;5.284;2023-04-24T13:00:38;28.00;99.90
22235;DHT22;11286;45.596;5.284;2023-04-24T13:03:04;28.60;99.90
22235;DHT22;11286;45.596;5.284;2023-04-24T13:05:30;28.60;99.90
22235;DHT22;11286;45.596;5.284;2023-04-24T13:07:57;26.10;99.90
22235;DHT22;11286;45.596;5.284;2023-04-24T13:10:22;25.10;99.90
22235;DHT22;11286;45.596;5.284;2023-04-24T13:12:48;26.40;99.90
22235;DHT22;11286;45.596;5.284;2023-04-24T13:15:14;26.80;99.90
22235;DHT22;11286;45.596;5.284;2023-04-24T13:17:40;26.30;99.90
22235;DHT22;11286;45.596;5.284;2023-04-24T13:20:06;25.10;99.90
22235;DHT22;11286;45.596;5.284;2023-04-24T13:22:32;23.90;99.90
22235;DHT22;11286;45.596;5.284;2023-04-24T13:24:57;23.60;99.90
22235;DHT22;11286;45.596;5.284;2023-04-24T13:27:23;22.90;99.90
22235;DHT22;11286;45.596;5.284;2023-04-24T13:29:49;22.00;99.90
22235;DHT22;11286;45.596;5.284;2023-04-24T13:32:14;22.10;99.90
22235;DHT22;11286;45.596;5.284;2023-04-24T13:34:40;22.30;99.90
22235;DHT22;11286;45.596;5.284;2023-04-24T13:37:06;22.50;99.90
22235;DHT22;11286;45.596;5.284;2023-04-24T13:39:33;22.40;99.90
22235;DHT22;11286;45.596;5.284;2023-04-24T13:41:59;22.00;99.90
22235;DHT22;11286;45.596;5.284;2023-04-24T13:44:25;21.80;99.90
22235;DHT22;11286;45.596;5.284;2023-04-24T13:46:53;22.00;99.90
22235;DHT22;11286;45.596;5.284;2023-04-24T13:49:21;21.80;99.90
22235;DHT22;11286;45.596;5.284;2023-04-24T13:51:47;21.60;99.90
22235;DHT22;11286;45.596;5.284;2023-04-24T13:54:14;21.40;99.90
22235;DHT22;11286;45.596;5.284;2023-04-24T13:56:40;21.30;99.90
22235;DHT22;11286;45.596;5.284;2023-04-24T13:59:06;22.10;99.90
22235;DHT22;11286;45.596;5.284;2023-04-24T14:01:32;21.40;99.90
22235;DHT22;11286;45.596;5.284;2023-04-24T14:03:57;21.20;99.90
22235;DHT22;11286;45.596;5.284;2023-04-24T14:06:23;21.30;99.90
22235;DHT22;11286;45.596;5.284;2023-04-24T14:08:49;21.20;99.90
22235;DHT22;11286;45.596;5.284;2023-04-24T14:11:16;20.90;99.90
22235;DHT22;11286;45.596;5.284;2023-04-24T14:13:42;20.90;99.90
22235;DHT22;11286;45.596;5.284;2023-04-24T14:16:09;21.20;99.90
22235;DHT22;11286;45.596;5.284;2023-04-24T14:18:35;21.20;99.90
22235;DHT22;11286;45.596;5.284;2023-04-24T14:21:02;21.20;99.90
22235;DHT22;11286;45.596;5.284;2023-04-24T14:23:27;20.80;99.90
22235;DHT22;11286;45.596;5.284;2023-04-24T14:25:53;21.50;99.90
22235;DHT22;11286;45.596;5.284;2023-04-24T14:28:19;21.40;99.90
22235;DHT22;11286;45.596;5.284;2023-04-24T14:30:46;21.10;99.90
22235;DHT22;11286;45.596;5.284;2023-04-24T14:33:12;21.50;99.90
22235;DHT22;11286;45.596;5.284;2023-04-24T14:35:39;21.30;99.90
22235;DHT22;11286;45.596;5.284;2023-04-24T14:38:05;21.50;99.90
22235;DHT22;11286;45.596;5.284;2023-04-24T14:40:31;21.50;99.90
22235;DHT22;11286;45.596;5.284;2023-04-24T14:42:58;21.90;99.90
22235;DHT22;11286;45.596;5.284;2023-04-24T14:45:24;21.80;99.90
22235;DHT22;11286;45.596;5.284;2023-04-24T14:47:50;22.10;99.90
22235;DHT22;11286;45.596;5.284;2023-04-24T14:50:16;22.30;99.90
22235;DHT22;11286;45.596;5.284;2023-04-24T14:52:42;22.50;99.90
22235;DHT22;11286;45.596;5.284;2023-04-24T14:55:08;22.60;99.90
22235;DHT22;11286;45.596;5.284;2023-04-24T14:57:34;22.70;99.90
22235;DHT22;11286;45.596;5.284;2023-04-24T15:00:01;23.10;99.90
22235;DHT22;11286;45.596;5.284;2023-04-24T15:02:28;23.50;99.90
22235;DHT22;11286;45.596;5.284;2023-04-24T15:04:54;23.10;99.90
22235;DHT22;11286;45.596;5.284;2023-04-24T15:07:19;22.30;99.90
22235;DHT22;11286;45.596;5.284;2023-04-24T15:09:45;22.40;99.90
22235;DHT22;11286;45.596;5.284;2023-04-24T15:12:12;22.20;99.90
22235;DHT22;11286;45.596;5.284;2023-04-24T15:14:38;21.60;99.90
22235;DHT22;11286;45.596;5.284;2023-04-24T15:17:03;21.60;99.90
22235;DHT22;11286;45.596;5.284;2023-04-24T15:19:29;21.50;99.90
22235;DHT22;11286;45.596;5.284;2023-04-24T15:21:55;21.50;99.90
22235;DHT22;11286;45.596;5.284;2023-04-24T15:24:20;21.50;99.90
22235;DHT22;11286;45.596;5.284;2023-04-24T15:26:46;21.60;99.90
22235;DHT22;11286;45.596;5.284;2023-04-24T15:29:11;21.70;99.90
22235;DHT22;11286;45.596;5.284;2023-04-24T15:31:37;21.70;99.90
22235;DHT22;11286;45.596;5.284;2023-04-24T15:34:05;21.60;99.90
22235;DHT22;11286;45.596;5.284;2023-04-24T15:36:31;21.50;99.90
22235;DHT22;11286;45.596;5.284;2023-04-24T15:38:57;21.50;99.90